createdAt,value
2022-08-03T00:00:27.103Z,25.20
2022-08-03T00:02:53.971Z,25.20
2022-08-03T00:05:20.930Z,25.10
2022-08-03T00:07:49.350Z,25.10
2022-08-03T00:10:16.513Z,25.10
2022-08-03T00:12:43.176Z,25.00
2022-08-03T00:15:15.142Z,25.00
2022-08-03T00:17:52.816Z,25.00
2022-08-03T00:20:24.663Z,25.00
2022-08-03T00:22:51.611Z,24.90
2022-08-03T00:25:18.352Z,24.90
2022-08-03T00:27:45.506Z,24.90
2022-08-03T00:30:14.425Z,24.90
2022-08-03T00:32:45.182Z,24.90
2022-08-03T00:35:25.966Z,24.80
2022-08-03T00:37:59.424Z,24.80
2022-08-03T00:40:26.476Z,24.80
2022-08-03T00:42:58.742Z,24.80
2022-08-03T00:45:27.759Z,24.70
2022-08-03T00:47:55.494Z,24.70
2022-08-03T00:50:24.204Z,24.70
2022-08-03T00:52:53.061Z,24.60
2022-08-03T00:55:20.370Z,24.60
2022-08-03T00:57:47.460Z,24.70
2022-08-03T01:00:17.632Z,24.60
2022-08-03T01:02:44.882Z,24.60
2022-08-03T01:05:12.020Z,24.60
2022-08-03T01:07:59.519Z,24.60
2022-08-03T01:10:35.029Z,24.60
2022-08-03T01:14:01.124Z,24.50
2022-08-03T01:16:36.582Z,24.50
2022-08-03T01:19:33.007Z,24.50
2022-08-03T01:22:10.357Z,24.50
2022-08-03T01:24:57.477Z,24.50
2022-08-03T01:27:43.166Z,24.40
2022-08-03T01:30:12.419Z,24.40
2022-08-03T01:33:01.091Z,24.40
2022-08-03T01:35:39.190Z,24.40
2022-08-03T01:38:15.533Z,24.30
2022-08-03T01:40:44.520Z,24.30
2022-08-03T01:43:15.200Z,24.30
2022-08-03T01:46:04.091Z,24.30
2022-08-03T01:48:32.066Z,24.30
2022-08-03T01:51:00.065Z,24.30
2022-08-03T01:53:28.661Z,24.20
2022-08-03T01:55:57.281Z,24.20
2022-08-03T01:58:25.749Z,24.20
2022-08-03T02:00:53.700Z,24.20
2022-08-03T02:03:23.129Z,24.20
2022-08-03T02:05:57.254Z,24.20
2022-08-03T02:08:43.046Z,24.20
2022-08-03T02:11:10.561Z,24.20
2022-08-03T02:13:39.169Z,24.10
2022-08-03T02:16:07.090Z,24.10
2022-08-03T02:18:35.051Z,24.10
2022-08-03T02:21:10.817Z,24.10
2022-08-03T02:23:38.759Z,24.10
2022-08-03T02:26:09.228Z,24.10
2022-08-03T02:28:39.132Z,24.00
2022-08-03T02:31:11.487Z,24.00
2022-08-03T02:33:42.356Z,24.10
2022-08-03T02:36:11.398Z,24.00
2022-08-03T02:38:42.483Z,24.00
2022-08-03T02:41:17.868Z,24.00
2022-08-03T02:44:05.733Z,24.00
2022-08-03T02:46:38.414Z,23.90
2022-08-03T02:49:40.689Z,23.90
2022-08-03T02:51:55.142Z,23.90
2022-08-03T02:54:24.858Z,23.90
2022-08-03T02:56:53.764Z,23.90
2022-08-03T02:59:21.123Z,24.00
2022-08-03T03:01:48.939Z,23.90
2022-08-03T03:04:16.545Z,23.90
2022-08-03T03:06:44.653Z,23.90
2022-08-03T03:09:14.673Z,23.90
2022-08-03T03:11:42.164Z,23.90
2022-08-03T03:14:11.113Z,23.80
2022-08-03T03:16:39.308Z,23.80
2022-08-03T03:19:07.447Z,23.80
2022-08-03T03:21:35.205Z,23.80
2022-08-03T03:24:02.463Z,23.80
2022-08-03T03:26:29.600Z,23.80
2022-08-03T03:28:56.688Z,23.70
2022-08-03T03:31:23.596Z,23.80
2022-08-03T03:33:50.416Z,23.80
2022-08-03T03:36:18.377Z,23.70
2022-08-03T03:38:45.127Z,23.70
2022-08-03T03:41:12.222Z,23.80
2022-08-03T03:43:39.028Z,23.70
2022-08-03T03:46:06.021Z,23.70
2022-08-03T03:48:33.499Z,23.70
2022-08-03T03:51:01.000Z,23.70
2022-08-03T03:53:27.699Z,23.60
2022-08-03T03:55:59.628Z,23.70
2022-08-03T03:58:30.927Z,23.60
2022-08-03T04:00:57.700Z,23.60
2022-08-03T04:03:24.547Z,23.60
2022-08-03T04:06:10.172Z,23.50
2022-08-03T04:08:55.572Z,23.50
2022-08-03T04:11:30.344Z,23.50
2022-08-03T04:14:23.591Z,23.50
2022-08-03T04:16:54.708Z,23.50
2022-08-03T04:19:36.670Z,23.40
2022-08-03T04:22:09.618Z,23.40
2022-08-03T04:24:56.968Z,23.40
2022-08-03T04:27:28.448Z,23.40
2022-08-03T04:29:56.706Z,23.40
2022-08-03T04:32:26.177Z,23.40
2022-08-03T04:34:53.524Z,23.30
2022-08-03T04:37:47.708Z,23.30
2022-08-03T04:40:29.731Z,23.30
2022-08-03T04:42:58.872Z,23.30
2022-08-03T04:45:27.342Z,23.30
2022-08-03T04:47:55.173Z,23.30
2022-08-03T04:50:22.561Z,23.40
2022-08-03T04:53:05.311Z,23.40
2022-08-03T04:55:34.427Z,23.50
2022-08-03T04:58:02.810Z,23.50
2022-08-03T05:00:29.960Z,23.60
2022-08-03T05:02:56.723Z,23.70
2022-08-03T05:05:23.526Z,23.80
2022-08-03T05:07:51.591Z,23.90
2022-08-03T05:10:20.071Z,24.10
2022-08-03T05:12:48.775Z,24.20
2022-08-03T05:15:15.800Z,24.30
2022-08-03T05:17:42.804Z,24.50
2022-08-03T05:20:10.551Z,24.70
2022-08-03T05:22:37.208Z,24.90
2022-08-03T05:25:04.293Z,25.00
2022-08-03T05:27:31.026Z,25.20
2022-08-03T05:30:30.394Z,25.40
2022-08-03T05:32:44.377Z,25.50
2022-08-03T05:35:56.847Z,25.60
2022-08-03T05:37:57.728Z,25.70
2022-08-03T05:40:24.761Z,25.80
2022-08-03T05:42:53.590Z,25.80
2022-08-03T05:45:21.140Z,25.90
2022-08-03T05:47:50.962Z,25.90
2022-08-03T05:50:19.340Z,25.90
2022-08-03T05:52:46.043Z,25.90
2022-08-03T05:55:13.814Z,25.90
2022-08-03T05:57:40.824Z,26.00
2022-08-03T06:00:11.772Z,26.00
2022-08-03T06:02:39.919Z,26.00
2022-08-03T06:05:07.178Z,26.10
2022-08-03T06:07:34.053Z,26.10
2022-08-03T06:10:37.491Z,26.20
2022-08-03T06:12:50.881Z,26.20
2022-08-03T06:15:18.667Z,26.30
2022-08-03T06:17:49.381Z,26.30
2022-08-03T06:20:18.601Z,26.40
2022-08-03T06:22:50.891Z,26.40
2022-08-03T06:25:27.244Z,26.50
2022-08-03T06:27:53.913Z,26.60
2022-08-03T06:30:21.425Z,26.70
2022-08-03T06:32:52.028Z,26.80
2022-08-03T06:35:19.274Z,26.90
2022-08-03T06:37:48.637Z,27.10
2022-08-03T06:40:21.987Z,27.20
2022-08-03T06:42:51.187Z,27.40
2022-08-03T06:45:18.112Z,27.50
2022-08-03T06:47:44.774Z,27.80
2022-08-03T06:50:16.334Z,28.00
2022-08-03T06:52:45.288Z,28.30
2022-08-03T06:55:12.300Z,28.60
2022-08-03T06:57:38.975Z,28.90
2022-08-03T07:00:11.854Z,29.20
2022-08-03T07:02:39.866Z,29.50
2022-08-03T07:05:07.680Z,29.80
2022-08-03T07:07:34.376Z,30.20
2022-08-03T07:10:02.389Z,30.50
2022-08-03T07:12:30.845Z,30.80
2022-08-03T07:15:01.187Z,31.20
2022-08-03T07:17:30.173Z,31.50
2022-08-03T07:19:57.151Z,31.90
2022-08-03T07:22:23.953Z,32.20
2022-08-03T07:24:50.719Z,32.50
2022-08-03T07:27:17.397Z,32.80
2022-08-03T07:29:44.032Z,33.00
2022-08-03T07:32:10.750Z,33.30
2022-08-03T07:34:37.461Z,33.50
2022-08-03T07:37:04.359Z,33.70
2022-08-03T07:39:31.044Z,34.00
2022-08-03T07:41:57.716Z,34.20
2022-08-03T07:44:24.346Z,34.40
2022-08-03T07:46:51.004Z,34.70
2022-08-03T07:49:19.023Z,34.90
2022-08-03T07:51:45.749Z,35.10
2022-08-03T07:54:12.433Z,35.40
2022-08-03T07:56:39.315Z,35.60
2022-08-03T07:59:06.122Z,35.80
2022-08-03T08:01:35.756Z,36.00
2022-08-03T08:04:02.571Z,36.20
2022-08-03T08:06:29.281Z,36.40
2022-08-03T08:08:59.520Z,36.60
2022-08-03T08:11:26.205Z,36.70
2022-08-03T08:13:52.836Z,36.90
2022-08-03T08:16:19.482Z,37.10
2022-08-03T08:18:46.210Z,37.20
2022-08-03T08:21:13.029Z,37.40
2022-08-03T08:23:42.931Z,37.50
2022-08-03T08:26:11.668Z,37.70
2022-08-03T08:28:38.767Z,37.80
2022-08-03T08:31:05.509Z,38.00
2022-08-03T08:34:02.163Z,38.10
2022-08-03T08:36:21.283Z,38.30
2022-08-03T08:38:48.178Z,38.50
2022-08-03T08:41:15.976Z,38.70
2022-08-03T08:43:43.141Z,38.90
2022-08-03T08:46:23.371Z,39.10
2022-08-03T08:48:52.423Z,39.20
2022-08-03T08:51:20.688Z,39.40
2022-08-03T08:53:51.739Z,39.60
2022-08-03T08:56:19.883Z,39.70
2022-08-03T08:58:53.080Z,39.80
2022-08-03T09:01:20.636Z,40.00
2022-08-03T09:03:47.954Z,40.10
2022-08-03T09:06:15.155Z,40.20
2022-08-03T09:08:42.025Z,40.30
2022-08-03T09:11:08.920Z,40.40
2022-08-03T09:13:38.994Z,40.40
2022-08-03T09:16:18.960Z,40.40
2022-08-03T09:18:49.116Z,40.50
2022-08-03T09:21:30.785Z,40.60
2022-08-03T09:24:02.718Z,40.60
2022-08-03T09:26:31.841Z,40.60
2022-08-03T09:29:13.179Z,40.70
2022-08-03T09:31:44.372Z,40.70
2022-08-03T09:34:13.750Z,40.80
2022-08-03T09:36:48.626Z,40.80
2022-08-03T09:39:16.297Z,40.90
2022-08-03T09:41:45.885Z,41.00
2022-08-03T09:44:23.994Z,41.10
2022-08-03T09:46:55.178Z,41.20
2022-08-03T09:49:22.848Z,41.40
2022-08-03T09:52:31.952Z,41.50
2022-08-03T09:54:36.470Z,41.60
2022-08-03T09:57:03.265Z,41.70
2022-08-03T09:59:31.855Z,41.70
2022-08-03T10:02:02.246Z,41.80
2022-08-03T10:04:29.179Z,41.80
2022-08-03T10:07:11.115Z,41.80
2022-08-03T10:09:38.263Z,41.80
2022-08-03T10:12:13.487Z,42.00
2022-08-03T10:14:42.109Z,42.10
2022-08-03T10:17:09.775Z,42.20
2022-08-03T10:19:36.562Z,42.40
2022-08-03T10:22:08.252Z,42.50
2022-08-03T10:24:37.293Z,42.70
2022-08-03T10:27:07.392Z,42.80
2022-08-03T10:29:42.833Z,42.90
2022-08-03T10:32:18.166Z,42.90
2022-08-03T10:34:46.256Z,42.90
2022-08-03T10:37:15.999Z,42.80
2022-08-03T10:39:53.306Z,42.60
2022-08-03T10:42:23.371Z,42.50
2022-08-03T10:44:56.145Z,42.40
2022-08-03T10:47:23.097Z,42.30
2022-08-03T10:49:50.380Z,42.20
2022-08-03T10:52:30.378Z,42.10
2022-08-03T10:55:19.150Z,42.00
2022-08-03T10:57:58.881Z,41.90
2022-08-03T11:00:28.325Z,41.60
2022-08-03T11:03:04.375Z,41.50
2022-08-03T11:05:33.229Z,41.40
2022-08-03T11:08:27.918Z,41.20
2022-08-03T11:10:58.181Z,41.10
2022-08-03T11:13:28.212Z,40.90
2022-08-03T11:16:01.621Z,40.80
2022-08-03T11:18:30.397Z,40.60
2022-08-03T11:20:59.449Z,40.50
2022-08-03T11:24:05.275Z,40.40
2022-08-03T11:26:33.987Z,40.30
2022-08-03T11:29:29.897Z,40.10
2022-08-03T11:31:57.225Z,39.90
2022-08-03T11:34:24.466Z,39.80
2022-08-03T11:37:20.518Z,39.60
2022-08-03T11:39:49.409Z,39.40
2022-08-03T11:42:22.364Z,39.30
2022-08-03T11:44:52.649Z,39.10
2022-08-03T11:47:21.309Z,39.00
2022-08-03T11:49:49.751Z,38.90
2022-08-03T11:52:18.348Z,38.70
2022-08-03T11:54:45.807Z,38.60
2022-08-03T11:57:12.606Z,38.50
2022-08-03T11:59:39.287Z,38.50
2022-08-03T12:02:14.552Z,38.30
2022-08-03T12:04:51.962Z,38.20
2022-08-03T12:07:25.048Z,38.10
2022-08-03T12:10:06.688Z,38.10
2022-08-03T12:12:33.476Z,38.00
2022-08-03T12:15:00.221Z,38.00
2022-08-03T12:17:41.140Z,37.90
2022-08-03T12:20:10.417Z,37.80
2022-08-03T12:22:41.156Z,37.70
2022-08-03T12:25:09.466Z,37.70
2022-08-03T12:27:36.627Z,37.50
2022-08-03T12:30:03.875Z,37.50
2022-08-03T12:32:31.212Z,37.40
2022-08-03T12:35:01.045Z,37.30
2022-08-03T12:37:28.756Z,37.20
2022-08-03T12:40:07.747Z,37.20
2022-08-03T12:42:39.166Z,37.10
2022-08-03T12:45:34.530Z,37.10
2022-08-03T12:48:02.680Z,37.00
2022-08-03T12:50:31.879Z,36.90
2022-08-03T12:53:04.498Z,36.80
2022-08-03T12:55:57.043Z,36.70
2022-08-03T12:58:35.917Z,36.70
2022-08-03T13:01:09.203Z,36.60
2022-08-03T13:03:49.640Z,36.60
2022-08-03T13:06:25.117Z,36.60
2022-08-03T13:09:08.252Z,36.50
2022-08-03T13:11:55.611Z,36.50
2022-08-03T13:14:23.699Z,36.40
2022-08-03T13:16:50.609Z,36.40
2022-08-03T13:19:17.504Z,36.30
2022-08-03T13:21:53.814Z,36.30
2022-08-03T13:24:31.464Z,36.30
2022-08-03T13:26:58.580Z,36.20
2022-08-03T13:29:25.229Z,36.20
2022-08-03T13:31:51.939Z,36.20
2022-08-03T13:34:23.211Z,36.10
2022-08-03T13:37:09.226Z,36.10
2022-08-03T13:39:58.434Z,36.10
2022-08-03T13:42:23.306Z,36.10
2022-08-03T13:44:49.990Z,36.10
2022-08-03T13:47:17.165Z,36.00
2022-08-03T13:49:54.284Z,36.00
2022-08-03T13:52:27.888Z,36.00
2022-08-03T13:54:54.736Z,36.00
2022-08-03T13:58:05.171Z,36.00
2022-08-03T14:00:09.777Z,35.90
2022-08-03T14:02:37.008Z,35.90
2022-08-03T14:05:04.110Z,35.90
2022-08-03T14:07:30.774Z,35.90
2022-08-03T14:09:57.469Z,35.90
2022-08-03T14:12:24.094Z,35.90
2022-08-03T14:14:50.733Z,35.90
2022-08-03T14:17:17.579Z,35.90
2022-08-03T14:19:52.668Z,35.90
2022-08-03T14:22:21.175Z,35.90
2022-08-03T14:24:49.357Z,35.90
2022-08-03T14:27:16.650Z,35.90
2022-08-03T14:29:43.651Z,35.90
2022-08-03T14:32:13.286Z,35.90
2022-08-03T14:34:41.206Z,35.90
2022-08-03T14:37:08.114Z,35.90
2022-08-03T14:42:21.671Z,35.80
2022-08-03T14:44:48.431Z,35.80
2022-08-03T14:47:15.227Z,35.80
2022-08-03T14:50:35.966Z,35.70
2022-08-03T14:52:30.013Z,35.70
2022-08-03T14:54:57.053Z,35.70
2022-08-03T14:57:23.802Z,35.60
2022-08-03T14:59:56.208Z,35.60
2022-08-03T15:02:24.888Z,35.60
2022-08-03T15:04:52.576Z,35.60
2022-08-03T15:07:20.406Z,35.50
2022-08-03T15:09:47.723Z,35.50
2022-08-03T15:12:14.526Z,35.40
2022-08-03T15:14:41.476Z,35.40
2022-08-03T15:17:08.235Z,35.30
2022-08-03T15:20:02.079Z,35.30
2022-08-03T15:22:25.392Z,35.30
2022-08-03T15:25:03.217Z,35.30
2022-08-03T15:27:29.877Z,35.20
2022-08-03T15:30:06.771Z,35.20
2022-08-03T15:32:36.932Z,35.10
2022-08-03T15:35:03.857Z,35.10
2022-08-03T15:37:30.539Z,35.10
2022-08-03T15:39:59.863Z,35.10
2022-08-03T15:42:30.862Z,35.00
2022-08-03T15:44:57.973Z,34.90
2022-08-03T15:47:25.145Z,34.90
2022-08-03T15:49:51.809Z,34.90
2022-08-03T15:52:18.569Z,34.90
2022-08-03T15:54:45.256Z,34.80
2022-08-03T15:57:11.943Z,34.80
2022-08-03T15:59:38.606Z,34.70
2022-08-03T16:02:05.358Z,34.70
2022-08-03T16:04:32.019Z,34.70
2022-08-03T16:06:58.703Z,34.70
2022-08-03T16:09:42.217Z,34.60
2022-08-03T16:12:13.286Z,34.60
2022-08-03T16:14:52.386Z,34.60
2022-08-03T16:17:21.091Z,34.60
2022-08-03T16:19:48.028Z,34.50
2022-08-03T16:22:14.756Z,34.50
2022-08-03T16:24:41.701Z,34.50
2022-08-03T16:27:26.355Z,34.50
2022-08-03T16:29:55.467Z,34.60
2022-08-03T16:32:22.285Z,34.50
2022-08-03T16:34:49.043Z,34.50
2022-08-03T16:37:37.697Z,34.50
2022-08-03T16:40:04.370Z,34.50
2022-08-03T16:42:31.155Z,34.50
2022-08-03T16:44:57.893Z,34.40
2022-08-03T16:47:24.643Z,34.40
2022-08-03T16:49:54.093Z,34.40
2022-08-03T16:52:22.914Z,34.40
2022-08-03T16:54:52.726Z,34.40
2022-08-03T16:57:59.775Z,34.40
2022-08-03T17:00:11.694Z,34.40
2022-08-03T17:02:43.086Z,34.40
2022-08-03T17:05:14.979Z,34.40
2022-08-03T17:07:46.957Z,34.40
2022-08-03T17:10:21.954Z,34.40
2022-08-03T17:12:54.087Z,34.40
2022-08-03T17:15:38.413Z,34.40
2022-08-03T17:18:12.486Z,34.30
2022-08-03T17:20:51.193Z,34.30
2022-08-03T17:23:35.890Z,34.30
2022-08-03T17:26:07.488Z,34.30
2022-08-03T17:28:51.371Z,34.30
2022-08-03T17:31:31.234Z,34.30
2022-08-03T17:34:01.723Z,34.30
2022-08-03T17:37:00.931Z,34.20
2022-08-03T17:39:23.516Z,34.20
2022-08-03T17:42:00.697Z,34.20
2022-08-03T17:44:35.343Z,34.10
2022-08-03T17:47:10.937Z,34.10
2022-08-03T17:49:39.790Z,34.00
2022-08-03T17:52:41.131Z,34.00
2022-08-03T17:55:56.991Z,34.00
2022-08-03T17:58:19.068Z,34.00
2022-08-03T18:01:23.385Z,33.90
2022-08-03T18:03:59.570Z,33.90
2022-08-03T18:06:31.074Z,33.80
2022-08-03T18:09:00.188Z,33.80
2022-08-03T18:11:35.463Z,33.80
2022-08-03T18:14:16.355Z,33.70
2022-08-03T18:16:55.970Z,33.60
2022-08-03T18:20:02.792Z,33.60
2022-08-03T18:22:11.869Z,33.60
2022-08-03T18:24:42.123Z,33.50
2022-08-03T18:27:10.781Z,33.40
2022-08-03T18:29:38.595Z,33.40
2022-08-03T18:32:13.240Z,33.50
2022-08-03T18:34:53.613Z,33.30
2022-08-03T18:37:25.965Z,33.20
2022-08-03T18:39:57.858Z,33.20
2022-08-03T18:42:26.210Z,33.20
2022-08-03T18:44:56.491Z,33.10
2022-08-03T18:47:53.935Z,33.10
2022-08-03T18:50:34.544Z,33.00
2022-08-03T18:53:24.200Z,32.90
2022-08-03T18:56:26.112Z,32.80
2022-08-03T18:59:02.517Z,32.80
2022-08-03T19:01:59.087Z,32.70
2022-08-03T19:04:33.422Z,32.70
2022-08-03T19:07:11.315Z,32.60
2022-08-03T19:09:37.936Z,32.50
2022-08-03T19:12:27.239Z,32.50
2022-08-03T19:15:10.623Z,32.40
2022-08-03T19:17:50.362Z,32.40
2022-08-03T19:20:22.170Z,32.30
2022-08-03T19:22:50.798Z,32.20
2022-08-03T19:25:18.364Z,32.20
2022-08-03T19:27:46.990Z,32.00
2022-08-03T19:30:35.663Z,32.00
2022-08-03T19:33:08.830Z,31.90
2022-08-03T19:35:55.514Z,31.90
2022-08-03T19:38:28.168Z,31.80
2022-08-03T19:41:03.560Z,31.80
2022-08-03T19:43:53.188Z,31.90
2022-08-03T19:46:27.637Z,31.60
2022-08-03T19:49:16.260Z,31.60
2022-08-03T19:52:01.162Z,31.50
2022-08-03T19:54:45.858Z,31.50
2022-08-03T19:57:25.032Z,31.40
2022-08-03T19:59:53.514Z,31.40
2022-08-03T20:02:26.458Z,31.30
2022-08-03T20:04:59.781Z,31.20
2022-08-03T20:07:28.452Z,31.20
2022-08-03T20:09:56.278Z,31.10
2022-08-03T20:12:27.776Z,31.10
2022-08-03T20:14:56.692Z,31.00
2022-08-03T20:17:23.394Z,31.00
2022-08-03T20:20:10.230Z,30.90
2022-08-03T20:22:40.036Z,30.90
2022-08-03T20:25:08.289Z,30.80
2022-08-03T20:28:07.231Z,30.80
2022-08-03T20:30:38.347Z,30.80
2022-08-03T20:33:09.332Z,30.70
2022-08-03T20:35:36.014Z,30.60
2022-08-03T20:38:03.366Z,30.60
2022-08-03T20:40:30.070Z,30.50
2022-08-03T20:42:56.789Z,30.50
2022-08-03T20:46:01.173Z,30.50
2022-08-03T20:48:10.430Z,30.40
2022-08-03T20:50:40.519Z,30.40
2022-08-03T20:53:12.015Z,30.30
2022-08-03T20:55:47.550Z,30.30
2022-08-03T20:58:27.294Z,30.20
2022-08-03T21:00:56.712Z,30.20
2022-08-03T21:03:23.459Z,30.20
2022-08-03T21:05:53.521Z,30.10
2022-08-03T21:08:25.142Z,30.00
2022-08-03T21:10:53.190Z,30.00
2022-08-03T21:13:31.629Z,30.00
2022-08-03T21:16:12.136Z,29.90
2022-08-03T21:18:46.151Z,29.80
2022-08-03T21:21:16.279Z,29.80
2022-08-03T21:23:48.995Z,29.80
2022-08-03T21:26:18.734Z,29.70
2022-08-03T21:28:47.322Z,29.70
2022-08-03T21:31:25.237Z,29.60
2022-08-03T21:34:11.079Z,29.60
2022-08-03T21:36:37.845Z,29.50
2022-08-03T21:39:08.016Z,29.50
2022-08-03T21:41:36.450Z,29.40
2022-08-03T21:44:04.402Z,29.50
2022-08-03T21:46:36.365Z,29.40
2022-08-03T21:50:07.443Z,29.30
2022-08-03T21:51:54.758Z,29.30
2022-08-03T21:54:23.408Z,29.30
2022-08-03T21:56:54.521Z,29.20
2022-08-03T21:59:23.395Z,29.20
2022-08-03T22:01:55.466Z,29.20
2022-08-03T22:04:53.407Z,29.10
2022-08-03T22:07:13.171Z,29.10
2022-08-03T22:09:40.351Z,29.00
2022-08-03T22:12:23.673Z,29.00
2022-08-03T22:14:59.974Z,28.90
2022-08-03T22:17:54.772Z,28.90
2022-08-03T22:20:20.142Z,28.90
2022-08-03T22:22:55.375Z,28.80
2022-08-03T22:25:29.185Z,28.80
2022-08-03T22:27:57.763Z,28.80
2022-08-03T22:30:24.443Z,28.70
2022-08-03T22:32:53.655Z,28.70
2022-08-03T22:35:23.770Z,28.60
2022-08-03T22:37:53.638Z,28.60
2022-08-03T22:40:20.650Z,28.60
2022-08-03T22:42:49.468Z,28.60
2022-08-03T22:46:06.228Z,28.60
2022-08-03T22:48:07.882Z,28.50
2022-08-03T22:50:35.002Z,28.50
2022-08-03T22:53:01.863Z,28.40
2022-08-03T22:55:28.757Z,28.40
2022-08-03T22:57:56.165Z,28.40
2022-08-03T23:00:23.671Z,28.40
2022-08-03T23:02:51.971Z,28.30
2022-08-03T23:06:01.826Z,28.30
2022-08-03T23:08:14.743Z,28.30
2022-08-03T23:10:47.085Z,28.20
2022-08-03T23:13:16.937Z,28.20
2022-08-03T23:16:00.152Z,28.20
2022-08-03T23:18:37.061Z,28.10
2022-08-03T23:21:11.072Z,28.10
2022-08-03T23:23:44.357Z,28.00
2022-08-03T23:26:15.436Z,28.00
2022-08-03T23:28:46.569Z,28.00
2022-08-03T23:31:14.789Z,27.90
2022-08-03T23:33:44.780Z,27.90
2022-08-03T23:36:30.921Z,27.90
2022-08-03T23:39:02.296Z,27.80
2022-08-03T23:41:30.672Z,27.80
2022-08-03T23:43:58.969Z,27.80
2022-08-03T23:46:30.162Z,27.80
2022-08-03T23:48:58.090Z,27.80
2022-08-03T23:52:02.126Z,27.70
2022-08-03T23:54:47.575Z,27.70
2022-08-03T23:57:32.511Z,27.70
